sensor_id;sensor_type;location;lat;lon;timestamp;pressure;altitude;pressure_sealevel;temperature;humidity
81686;BME280;71102;50.960;6.888;2024-03-23T00:55:30;100596.31;;;9.51;96.27
81686;BME280;71102;50.960;6.888;2024-03-23T00:57:55;100591.94;;;9.59;96.27
81686;BME280;71102;50.960;6.888;2024-03-23T01:00:20;100586.66;;;9.53;96.76
81686;BME280;71102;50.960;6.888;2024-03-23T01:02:46;100584.91;;;9.60;96.89
81686;BME280;71102;50.960;6.888;2024-03-23T01:05:11;100580.53;;;9.60;97.19
81686;BME280;71102;50.960;6.888;2024-03-23T01:07:36;100585.72;;;9.48;95.92
81686;BME280;71102;50.960;6.888;2024-03-23T01:10:02;100577.81;;;9.53;95.71
81686;BME280;71102;50.960;6.888;2024-03-23T01:12:27;100588.25;;;9.33;96.23
81686;BME280;71102;50.960;6.888;2024-03-23T01:14:53;100580.22;;;9.24;96.23
81686;BME280;71102;50.960;6.888;2024-03-23T01:17:18;100580.84;;;8.93;95.68
81686;BME280;71102;50.960;6.888;2024-03-23T01:19:43;100573.00;;;9.02;96.59
81686;BME280;71102;50.960;6.888;2024-03-23T01:22:08;100582.84;;;9.20;95.81
81686;BME280;71102;50.960;6.888;2024-03-23T01:24:34;100578.31;;;9.08;95.82
81686;BME280;71102;50.960;6.888;2024-03-23T01:26:59;100574.81;;;9.06;96.36
81686;BME280;71102;50.960;6.888;2024-03-23T01:29:24;100573.06;;;9.11;94.17
81686;BME280;71102;50.960;6.888;2024-03-23T01:31:50;100577.41;;;9.03;93.32
81686;BME280;71102;50.960;6.888;2024-03-23T01:34:15;100577.34;;;8.96;93.94
81686;BME280;71102;50.960;6.888;2024-03-23T01:36:40;100582.53;;;8.88;95.63
81686;BME280;71102;50.960;6.888;2024-03-23T01:39:06;100578.25;;;8.99;95.54
81686;BME280;71102;50.960;6.888;2024-03-23T01:41:31;100574.50;;;8.76;94.62
81686;BME280;71102;50.960;6.888;2024-03-23T01:43:56;100571.16;;;8.92;94.82
81686;BME280;71102;50.960;6.888;2024-03-23T01:46:22;100581.75;;;8.95;95.11
81686;BME280;71102;50.960;6.888;2024-03-23T01:48:47;100573.78;;;8.92;94.83
81686;BME280;71102;50.960;6.888;2024-03-23T01:51:14;100564.03;;;8.88;93.53
81686;BME280;71102;50.960;6.888;2024-03-23T01:53:39;100563.16;;;8.85;95.09
81686;BME280;71102;50.960;6.888;2024-03-23T01:56:05;100566.66;;;8.82;95.18
81686;BME280;71102;50.960;6.888;2024-03-23T01:58:30;100571.06;;;8.83;93.30
81686;BME280;71102;50.960;6.888;2024-03-23T02:00:57;100574.63;;;8.85;93.79
81686;BME280;71102;50.960;6.888;2024-03-23T02:03:26;100572.72;;;8.72;94.79
81686;BME280;71102;50.960;6.888;2024-03-23T02:05:53;100562.19;;;8.75;94.10
81686;BME280;71102;50.960;6.888;2024-03-23T02:08:20;100568.25;;;8.65;94.30
81686;BME280;71102;50.960;6.888;2024-03-23T02:10:46;100578.00;;;8.72;95.29
81686;BME280;71102;50.960;6.888;2024-03-23T02:13:11;100579.69;;;8.67;94.40
81686;BME280;71102;50.960;6.888;2024-03-23T02:15:38;100575.22;;;8.62;95.18
81686;BME280;71102;50.960;6.888;2024-03-23T02:18:04;100580.34;;;8.45;95.69
81686;BME280;71102;50.960;6.888;2024-03-23T02:20:29;100577.78;;;8.54;95.95
81686;BME280;71102;50.960;6.888;2024-03-23T02:22:54;100577.59;;;8.36;95.04
81686;BME280;71102;50.960;6.888;2024-03-23T02:25:20;100566.13;;;8.33;92.06
81686;BME280;71102;50.960;6.888;2024-03-23T02:27:45;100578.22;;;8.20;90.92
81686;BME280;71102;50.960;6.888;2024-03-23T02:30:10;100588.47;;;7.96;91.09
81686;BME280;71102;50.960;6.888;2024-03-23T02:32:36;100583.22;;;7.97;90.25
81686;BME280;71102;50.960;6.888;2024-03-23T02:35:01;100581.22;;;7.80;89.61
81686;BME280;71102;50.960;6.888;2024-03-23T02:37:26;100591.00;;;7.87;88.72
81686;BME280;71102;50.960;6.888;2024-03-23T02:39:52;100598.81;;;7.81;90.88
81686;BME280;71102;50.960;6.888;2024-03-23T02:42:17;100608.63;;;7.91;88.10
81686;BME280;71102;50.960;6.888;2024-03-23T02:44:43;100605.16;;;7.95;88.53
81686;BME280;71102;50.960;6.888;2024-03-23T02:47:08;100605.06;;;7.89;90.64
81686;BME280;71102;50.960;6.888;2024-03-23T02:49:34;100608.47;;;7.80;89.61
81686;BME280;71102;50.960;6.888;2024-03-23T02:51:59;100603.88;;;7.67;90.03
81686;BME280;71102;50.960;6.888;2024-03-23T02:54:24;100602.97;;;7.64;92.52
81686;BME280;71102;50.960;6.888;2024-03-23T02:56:50;100600.38;;;7.67;92.01
81686;BME280;71102;50.960;6.888;2024-03-23T02:59:15;100604.81;;;7.71;91.70
81686;BME280;71102;50.960;6.888;2024-03-23T03:01:40;100608.19;;;7.61;92.31
81686;BME280;71102;50.960;6.888;2024-03-23T03:04:06;100605.84;;;7.82;90.83
81686;BME280;71102;50.960;6.888;2024-03-23T03:06:31;100599.50;;;7.68;91.98
81686;BME280;71102;50.960;6.888;2024-03-23T03:08:56;100596.94;;;7.72;92.30
81686;BME280;71102;50.960;6.888;2024-03-23T03:11:22;100580.31;;;7.78;91.80
81686;BME280;71102;50.960;6.888;2024-03-23T03:13:47;100577.69;;;7.78;93.38
81686;BME280;71102;50.960;6.888;2024-03-23T03:16:12;100581.97;;;7.70;91.94
81686;BME280;71102;50.960;6.888;2024-03-23T03:18:38;100575.72;;;7.65;93.38
81686;BME280;71102;50.960;6.888;2024-03-23T03:21:04;100577.47;;;7.66;92.20
81686;BME280;71102;50.960;6.888;2024-03-23T03:23:29;100574.91;;;7.69;91.49
81686;BME280;71102;50.960;6.888;2024-03-23T03:25:55;100586.25;;;7.63;89.39
81686;BME280;71102;50.960;6.888;2024-03-23T03:28:20;100589.09;;;7.77;90.58
81686;BME280;71102;50.960;6.888;2024-03-23T03:30:45;100595.25;;;7.77;88.72
81686;BME280;71102;50.960;6.888;2024-03-23T03:33:11;100580.25;;;7.75;90.75
81686;BME280;71102;50.960;6.888;2024-03-23T03:35:36;100584.72;;;7.79;90.77
81686;BME280;71102;50.960;6.888;2024-03-23T03:38:01;100589.16;;;7.80;91.76
81686;BME280;71102;50.960;6.888;2024-03-23T03:40:27;100584.47;;;7.61;90.74
81686;BME280;71102;50.960;6.888;2024-03-23T03:42:52;100581.97;;;7.70;91.02
81686;BME280;71102;50.960;6.888;2024-03-23T03:45:17;100581.03;;;7.66;90.82
81686;BME280;71102;50.960;6.888;2024-03-23T03:47:43;100587.25;;;7.70;90.09
81686;BME280;71102;50.960;6.888;2024-03-23T03:50:08;100577.38;;;7.57;91.95
81686;BME280;71102;50.960;6.888;2024-03-23T03:52:33;100581.06;;;7.69;93.42
81686;BME280;71102;50.960;6.888;2024-03-23T03:55:02;100588.50;;;7.38;92.32
81686;BME280;71102;50.960;6.888;2024-03-23T03:57:28;100594.94;;;7.56;91.97
81686;BME280;71102;50.960;6.888;2024-03-23T03:59:53;100590.59;;;7.58;91.98
81686;BME280;71102;50.960;6.888;2024-03-23T04:02:19;100594.00;;;7.53;91.65
81686;BME280;71102;50.960;6.888;2024-03-23T04:04:44;100592.06;;;7.41;91.86
81686;BME280;71102;50.960;6.888;2024-03-23T04:07:09;100597.28;;;7.38;92.69
81686;BME280;71102;50.960;6.888;2024-03-23T04:09:35;100588.50;;;7.39;91.80
81686;BME280;71102;50.960;6.888;2024-03-23T04:12:00;100594.72;;;7.41;91.07
81686;BME280;71102;50.960;6.888;2024-03-23T04:14:25;100597.94;;;7.25;92.25
81686;BME280;71102;50.960;6.888;2024-03-23T04:16:51;100607.81;;;7.37;92.49
81686;BME280;71102;50.960;6.888;2024-03-23T04:19:16;100595.25;;;7.21;93.20
81686;BME280;71102;50.960;6.888;2024-03-23T04:21:41;100601.78;;;7.45;90.65
81686;BME280;71102;50.960;6.888;2024-03-23T04:24:07;100598.94;;;7.32;92.70
81686;BME280;71102;50.960;6.888;2024-03-23T04:26:42;100596.59;;;7.50;93.84
81686;BME280;71102;50.960;6.888;2024-03-23T04:29:08;100597.09;;;7.28;92.00
81686;BME280;71102;50.960;6.888;2024-03-23T04:31:33;100606.22;;;7.48;91.17
81686;BME280;71102;50.960;6.888;2024-03-23T04:33:58;100607.09;;;7.47;91.67
81686;BME280;71102;50.960;6.888;2024-03-23T04:36:23;100606.16;;;7.45;91.31
81686;BME280;71102;50.960;6.888;2024-03-23T04:38:49;100610.59;;;7.46;91.60
81686;BME280;71102;50.960;6.888;2024-03-23T04:41:14;100607.81;;;7.37;91.81
81686;BME280;71102;50.960;6.888;2024-03-23T04:43:39;100611.22;;;7.30;91.02
81686;BME280;71102;50.960;6.888;2024-03-23T04:46:05;100610.25;;;7.26;92.30
81686;BME280;71102;50.960;6.888;2024-03-23T04:48:30;100612.06;;;7.27;92.79
81686;BME280;71102;50.960;6.888;2024-03-23T04:50:55;100605.16;;;7.35;91.77
81686;BME280;71102;50.960;6.888;2024-03-23T04:53:21;100605.22;;;7.40;91.15
81686;BME280;71102;50.960;6.888;2024-03-23T04:55:46;100597.16;;;7.31;91.39
81686;BME280;71102;50.960;6.888;2024-03-23T04:58:11;100583.97;;;7.29;92.41
81686;BME280;71102;50.960;6.888;2024-03-23T05:00:37;100578.59;;;7.23;92.19
81686;BME280;71102;50.960;6.888;2024-03-23T05:03:02;100585.72;;;7.30;91.88
81686;BME280;71102;50.960;6.888;2024-03-23T05:05:27;100587.19;;;7.12;92.48
81686;BME280;71102;50.960;6.888;2024-03-23T05:07:53;100593.53;;;7.23;92.40
81686;BME280;71102;50.960;6.888;2024-03-23T05:10:18;100596.06;;;7.17;92.47
81686;BME280;71102;50.960;6.888;2024-03-23T05:12:43;100601.34;;;7.18;92.34
81686;BME280;71102;50.960;6.888;2024-03-23T05:15:09;100608.28;;;7.12;93.29
81686;BME280;71102;50.960;6.888;2024-03-23T05:17:34;100610.19;;;7.20;92.67
81686;BME280;71102;50.960;6.888;2024-03-23T05:20:00;100606.59;;;7.17;93.15
81686;BME280;71102;50.960;6.888;2024-03-23T05:22:25;100609.19;;;7.15;93.17
81686;BME280;71102;50.960;6.888;2024-03-23T05:24:50;100608.28;;;7.12;92.92
81686;BME280;71102;50.960;6.888;2024-03-23T05:27:16;100615.28;;;7.11;93.22
81686;BME280;71102;50.960;6.888;2024-03-23T05:29:41;100612.72;;;7.16;93.25
81686;BME280;71102;50.960;6.888;2024-03-23T05:32:06;100611.78;;;7.12;94.30
81686;BME280;71102;50.960;6.888;2024-03-23T05:34:32;100599.59;;;7.17;93.78
81686;BME280;71102;50.960;6.888;2024-03-23T05:36:57;100607.34;;;7.10;93.41
81686;BME280;71102;50.960;6.888;2024-03-23T05:39:23;100610.88;;;7.10;93.86
81686;BME280;71102;50.960;6.888;2024-03-23T05:41:48;100605.66;;;7.12;93.35
81686;BME280;71102;50.960;6.888;2024-03-23T05:44:13;100602.97;;;7.10;93.24
81686;BME280;71102;50.960;6.888;2024-03-23T05:46:39;100602.91;;;7.06;93.08
81686;BME280;71102;50.960;6.888;2024-03-23T05:49:04;100606.47;;;7.11;93.25
81686;BME280;71102;50.960;6.888;2024-03-23T05:51:29;100604.81;;;7.14;94.05
81686;BME280;71102;50.960;6.888;2024-03-23T05:53:55;100605.63;;;7.10;94.06
81686;BME280;71102;50.960;6.888;2024-03-23T05:56:20;100617.91;;;7.11;93.05
81686;BME280;71102;50.960;6.888;2024-03-23T05:58:45;100615.94;;;7.00;93.23
81686;BME280;71102;50.960;6.888;2024-03-23T06:01:11;100613.03;;;6.83;93.50
81686;BME280;71102;50.960;6.888;2024-03-23T06:03:36;100614.13;;;6.96;93.71
81686;BME280;71102;50.960;6.888;2024-03-23T06:06:02;100624.34;;;6.78;93.60
81686;BME280;71102;50.960;6.888;2024-03-23T06:08:27;100620.16;;;6.89;93.81
81686;BME280;71102;50.960;6.888;2024-03-23T06:10:52;100631.38;;;6.79;93.67
81686;BME280;71102;50.960;6.888;2024-03-23T06:13:18;100629.59;;;6.78;93.36
81686;BME280;71102;50.960;6.888;2024-03-23T06:15:43;100626.78;;;6.69;94.26
81686;BME280;71102;50.960;6.888;2024-03-23T06:18:08;100627.69;;;6.71;93.63
81686;BME280;71102;50.960;6.888;2024-03-23T06:20:34;100627.88;;;6.80;93.72
81686;BME280;71102;50.960;6.888;2024-03-23T06:23:00;100633.19;;;6.83;94.44
81686;BME280;71102;50.960;6.888;2024-03-23T06:25:26;100622.41;;;6.71;93.19
81686;BME280;71102;50.960;6.888;2024-03-23T06:27:51;100623.53;;;6.82;94.40
81686;BME280;71102;50.960;6.888;2024-03-23T06:30:16;100622.72;;;6.86;93.36
81686;BME280;71102;50.960;6.888;2024-03-23T06:32:42;100634.16;;;6.88;94.00
81686;BME280;71102;50.960;6.888;2024-03-23T06:35:07;100627.75;;;6.74;94.00
81686;BME280;71102;50.960;6.888;2024-03-23T06:37:33;100627.81;;;6.77;94.86
81686;BME280;71102;50.960;6.888;2024-03-23T06:39:58;100638.41;;;6.80;94.37
81686;BME280;71102;50.960;6.888;2024-03-23T06:42:23;100634.16;;;6.86;94.33
81686;BME280;71102;50.960;6.888;2024-03-23T06:44:49;100634.97;;;6.84;93.57
81686;BME280;71102;50.960;6.888;2024-03-23T06:47:14;100645.63;;;6.90;94.82
81686;BME280;71102;50.960;6.888;2024-03-23T06:49:39;100644.69;;;6.86;94.52
81686;BME280;71102;50.960;6.888;2024-03-23T06:52:05;100645.69;;;6.93;94.95
81686;BME280;71102;50.960;6.888;2024-03-23T06:54:30;100645.75;;;6.96;94.01
81686;BME280;71102;50.960;6.888;2024-03-23T06:56:55;100644.63;;;6.83;94.40
81686;BME280;71102;50.960;6.888;2024-03-23T06:59:21;100647.44;;;6.94;93.86
81686;BME280;71102;50.960;6.888;2024-03-23T07:01:46;100651.06;;;6.99;94.67
81686;BME280;71102;50.960;6.888;2024-03-23T07:04:11;100638.66;;;6.92;94.33
81686;BME280;71102;50.960;6.888;2024-03-23T07:06:46;100648.38;;;6.96;94.02
81686;BME280;71102;50.960;6.888;2024-03-23T07:09:11;100640.66;;;7.08;94.27
81686;BME280;71102;50.960;6.888;2024-03-23T07:11:37;100645.06;;;7.07;94.42
81686;BME280;71102;50.960;6.888;2024-03-23T07:14:03;100640.72;;;7.11;93.46
81686;BME280;71102;50.960;6.888;2024-03-23T07:16:29;100651.16;;;7.05;93.23
81686;BME280;71102;50.960;6.888;2024-03-23T07:18:54;100648.53;;;7.06;94.99
81686;BME280;71102;50.960;6.888;2024-03-23T07:21:19;100651.22;;;7.08;94.52
81686;BME280;71102;50.960;6.888;2024-03-23T07:23:45;100651.44;;;7.20;93.46
81686;BME280;71102;50.960;6.888;2024-03-23T07:26:11;100655.00;;;7.23;93.87
81686;BME280;71102;50.960;6.888;2024-03-23T07:28:37;100661.25;;;7.28;94.25
81686;BME280;71102;50.960;6.888;2024-03-23T07:31:07;100656.91;;;7.32;93.75
81686;BME280;71102;50.960;6.888;2024-03-23T07:33:32;100660.56;;;7.40;94.00
81686;BME280;71102;50.960;6.888;2024-03-23T07:35:58;100667.84;;;7.53;93.82
81686;BME280;71102;50.960;6.888;2024-03-23T07:38:23;100664.28;;;7.52;93.40
81686;BME280;71102;50.960;6.888;2024-03-23T07:40:49;100652.81;;;7.50;93.90
81686;BME280;71102;50.960;6.888;2024-03-23T07:43:14;100657.41;;;7.62;93.36
81686;BME280;71102;50.960;6.888;2024-03-23T07:45:39;100660.28;;;7.75;92.78
81686;BME280;71102;50.960;6.888;2024-03-23T07:48:05;100658.53;;;7.77;93.01
81686;BME280;71102;50.960;6.888;2024-03-23T07:50:30;100662.16;;;7.82;92.71
81686;BME280;71102;50.960;6.888;2024-03-23T07:52:56;100658.66;;;7.85;91.51
81686;BME280;71102;50.960;6.888;2024-03-23T07:55:21;100657.09;;;7.99;91.72
81686;BME280;71102;50.960;6.888;2024-03-23T07:57:46;100654.44;;;7.97;90.88
81686;BME280;71102;50.960;6.888;2024-03-23T08:00:12;100661.56;;;8.03;90.45
81686;BME280;71102;50.960;6.888;2024-03-23T08:02:38;100679.25;;;8.09;88.89
81686;BME280;71102;50.960;6.888;2024-03-23T08:05:03;100660.75;;;8.07;90.20
81686;BME280;71102;50.960;6.888;2024-03-23T08:07:29;100659.06;;;8.12;88.63
81686;BME280;71102;50.960;6.888;2024-03-23T08:09:54;100665.41;;;8.23;88.41
81686;BME280;71102;50.960;6.888;2024-03-23T08:12:19;100670.75;;;8.28;84.80
81686;BME280;71102;50.960;6.888;2024-03-23T08:14:44;100664.59;;;8.29;85.20
81686;BME280;71102;50.960;6.888;2024-03-23T08:17:10;100662.94;;;8.35;84.83
81686;BME280;71102;50.960;6.888;2024-03-23T08:19:35;100658.53;;;8.37;81.91
81686;BME280;71102;50.960;6.888;2024-03-23T08:22:00;100660.34;;;8.38;80.95
81686;BME280;71102;50.960;6.888;2024-03-23T08:24:26;100658.78;;;8.55;82.48
81686;BME280;71102;50.960;6.888;2024-03-23T08:26:51;100665.97;;;8.65;80.45
81686;BME280;71102;50.960;6.888;2024-03-23T08:29:19;100658.91;;;8.67;76.30
81686;BME280;71102;50.960;6.888;2024-03-23T08:31:44;100655.31;;;8.59;74.80
81686;BME280;71102;50.960;6.888;2024-03-23T08:34:09;100670.31;;;8.63;75.05
81686;BME280;71102;50.960;6.888;2024-03-23T08:36:35;100668.53;;;8.61;74.53
81686;BME280;71102;50.960;6.888;2024-03-23T08:39:00;100673.75;;;8.55;76.40
81686;BME280;71102;50.960;6.888;2024-03-23T08:41:25;100683.41;;;8.54;77.70
81686;BME280;71102;50.960;6.888;2024-03-23T08:43:51;100664.00;;;8.51;77.91
81686;BME280;71102;50.960;6.888;2024-03-23T08:46:17;100681.63;;;8.53;78.73
81686;BME280;71102;50.960;6.888;2024-03-23T08:48:47;100676.44;;;8.59;79.14
81686;BME280;71102;50.960;6.888;2024-03-23T08:51:13;100684.44;;;8.65;79.17
81686;BME280;71102;50.960;6.888;2024-03-23T08:53:39;100681.06;;;8.80;79.71
81686;BME280;71102;50.960;6.888;2024-03-23T08:56:06;100671.47;;;8.85;78.45
81686;BME280;71102;50.960;6.888;2024-03-23T08:58:32;100689.94;;;8.83;78.39
81686;BME280;71102;50.960;6.888;2024-03-23T09:03:30;100673.31;;;8.93;78.31
81686;BME280;71102;50.960;6.888;2024-03-23T09:05:56;100674.25;;;9.00;79.40
81686;BME280;71102;50.960;6.888;2024-03-23T09:08:21;100664.56;;;8.97;78.83
81686;BME280;71102;50.960;6.888;2024-03-23T09:10:47;100673.50;;;9.11;79.53
81686;BME280;71102;50.960;6.888;2024-03-23T09:13:13;100680.41;;;8.97;77.23
81686;BME280;71102;50.960;6.888;2024-03-23T09:15:46;100669.75;;;8.87;76.70
81686;BME280;71102;50.960;6.888;2024-03-23T09:18:12;100664.38;;;8.81;77.67
81686;BME280;71102;50.960;6.888;2024-03-23T09:20:37;100681.03;;;8.74;78.24
81686;BME280;71102;50.960;6.888;2024-03-23T09:23:03;100662.56;;;8.78;77.88
81686;BME280;71102;50.960;6.888;2024-03-23T09:25:28;100661.63;;;8.72;77.06
81686;BME280;71102;50.960;6.888;2024-03-23T09:27:53;100662.56;;;8.78;75.76
81686;BME280;71102;50.960;6.888;2024-03-23T09:30:19;100675.00;;;8.88;74.62
81686;BME280;71102;50.960;6.888;2024-03-23T09:32:44;100646.03;;;8.94;73.85
81686;BME280;71102;50.960;6.888;2024-03-23T09:35:10;100672.47;;;8.97;72.05
81686;BME280;71102;50.960;6.888;2024-03-23T09:37:36;100657.63;;;9.08;71.41
81686;BME280;71102;50.960;6.888;2024-03-23T09:40:02;100655.03;;;9.14;72.86
81686;BME280;71102;50.960;6.888;2024-03-23T09:42:27;100655.16;;;9.26;70.98
81686;BME280;71102;50.960;6.888;2024-03-23T09:44:53;100657.81;;;9.26;70.24
81686;BME280;71102;50.960;6.888;2024-03-23T09:47:19;100655.31;;;9.44;70.45
81686;BME280;71102;50.960;6.888;2024-03-23T09:49:44;100663.38;;;9.56;68.93
81686;BME280;71102;50.960;6.888;2024-03-23T09:52:10;100647.59;;;9.70;69.14
81686;BME280;71102;50.960;6.888;2024-03-23T09:54:35;100644.06;;;9.69;68.10
81686;BME280;71102;50.960;6.888;2024-03-23T09:57:01;100645.88;;;9.76;67.70
81686;BME280;71102;50.960;6.888;2024-03-23T09:59:26;100641.41;;;9.69;65.61
81686;BME280;71102;50.960;6.888;2024-03-23T10:01:53;100633.34;;;9.53;65.58
81686;BME280;71102;50.960;6.888;2024-03-23T10:07:18;100635.25;;;9.67;65.19
81686;BME280;71102;50.960;6.888;2024-03-23T10:09:43;100643.16;;;9.64;66.15
81686;BME280;71102;50.960;6.888;2024-03-23T10:12:13;100653.81;;;9.72;66.77
81686;BME280;71102;50.960;6.888;2024-03-23T10:14:39;100649.38;;;9.72;68.01
81686;BME280;71102;50.960;6.888;2024-03-23T10:19:41;100637.19;;;9.94;67.63
81686;BME280;71102;50.960;6.888;2024-03-23T10:22:06;100634.47;;;9.86;66.41
81686;BME280;71102;50.960;6.888;2024-03-23T10:24:31;100639.72;;;9.77;65.49
81686;BME280;71102;50.960;6.888;2024-03-23T10:26:57;100637.06;;;9.74;65.91
81686;BME280;71102;50.960;6.888;2024-03-23T10:29:22;100634.47;;;9.82;66.19
81686;BME280;71102;50.960;6.888;2024-03-23T10:31:47;100639.69;;;9.71;66.20
81686;BME280;71102;50.960;6.888;2024-03-23T10:34:13;100662.56;;;9.69;67.17
81686;BME280;71102;50.960;6.888;2024-03-23T10:36:39;100655.50;;;9.67;63.79
81686;BME280;71102;50.960;6.888;2024-03-23T10:39:07;100660.66;;;9.47;66.82
81686;BME280;71102;50.960;6.888;2024-03-23T10:41:32;100657.03;;;9.41;67.74
81686;BME280;71102;50.960;6.888;2024-03-23T10:43:58;100661.28;;;9.22;68.62
81686;BME280;71102;50.960;6.888;2024-03-23T10:46:24;100656.16;;;9.37;69.57
81686;BME280;71102;50.960;6.888;2024-03-23T10:48:50;100667.66;;;9.44;69.73
81686;BME280;71102;50.960;6.888;2024-03-23T10:51:15;100677.50;;;9.61;70.36
81686;BME280;71102;50.960;6.888;2024-03-23T10:53:40;100671.38;;;9.65;68.60
81686;BME280;71102;50.960;6.888;2024-03-23T10:56:07;100675.59;;;9.45;65.69
81686;BME280;71102;50.960;6.888;2024-03-23T10:58:37;100675.97;;;8.93;66.66
81686;BME280;71102;50.960;6.888;2024-03-23T11:01:03;100653.22;;;9.09;67.73
81686;BME280;71102;50.960;6.888;2024-03-23T11:03:36;100661.09;;;9.04;69.00
81686;BME280;71102;50.960;6.888;2024-03-23T11:06:03;100676.06;;;9.02;68.51
81686;BME280;71102;50.960;6.888;2024-03-23T11:08:32;100658.66;;;9.21;70.27
81686;BME280;71102;50.960;6.888;2024-03-23T11:11:17;100666.72;;;9.37;69.48
81686;BME280;71102;50.960;6.888;2024-03-23T11:13:42;100654.63;;;9.69;71.46
81686;BME280;71102;50.960;6.888;2024-03-23T11:16:24;100655.84;;;10.06;72.02
81686;BME280;71102;50.960;6.888;2024-03-23T11:18:50;100675.25;;;10.11;73.52
81686;BME280;71102;50.960;6.888;2024-03-23T11:21:53;100681.09;;;9.71;73.54
81686;BME280;71102;50.960;6.888;2024-03-23T11:24:19;100680.66;;;9.20;75.91
81686;BME280;71102;50.960;6.888;2024-03-23T11:26:45;100676.06;;;9.02;75.72
81686;BME280;71102;50.960;6.888;2024-03-23T11:29:11;100686.16;;;8.63;76.31
81686;BME280;71102;50.960;6.888;2024-03-23T11:31:38;100681.81;;;8.65;74.30
81686;BME280;71102;50.960;6.888;2024-03-23T11:34:06;100676.34;;;8.53;72.73
81686;BME280;71102;50.960;6.888;2024-03-23T11:36:32;100663.31;;;8.65;77.30
81686;BME280;71102;50.960;6.888;2024-03-23T11:38:57;100662.47;;;8.69;74.40
81686;BME280;71102;50.960;6.888;2024-03-23T11:41:23;100656.47;;;8.82;73.58
81686;BME280;71102;50.960;6.888;2024-03-23T11:43:48;100648.41;;;8.70;74.86
81686;BME280;71102;50.960;6.888;2024-03-23T11:46:22;100645.94;;;8.85;79.39
81686;BME280;71102;50.960;6.888;2024-03-23T11:48:50;100639.84;;;8.92;76.06
81686;BME280;71102;50.960;6.888;2024-03-23T11:51:17;100649.69;;;9.08;80.04
81686;BME280;71102;50.960;6.888;2024-03-23T11:53:42;100660.44;;;9.25;78.59
81686;BME280;71102;50.960;6.888;2024-03-23T11:56:08;100652.25;;;8.99;78.21
81686;BME280;71102;50.960;6.888;2024-03-23T11:58:34;100660.31;;;9.14;76.81
81686;BME280;71102;50.960;6.888;2024-03-23T12:01:02;100647.50;;;8.70;75.09
81686;BME280;71102;50.960;6.888;2024-03-23T12:03:28;100658.09;;;8.68;78.09
81686;BME280;71102;50.960;6.888;2024-03-23T12:05:55;100658.13;;;8.74;76.89
81686;BME280;71102;50.960;6.888;2024-03-23T12:08:25;100639.63;;;8.74;77.09
81686;BME280;71102;50.960;6.888;2024-03-23T12:13:30;100648.56;;;8.84;71.23
81686;BME280;71102;50.960;6.888;2024-03-23T12:16:09;100650.72;;;9.25;71.32
81686;BME280;71102;50.960;6.888;2024-03-23T12:18:34;100650.91;;;9.43;69.03
81686;BME280;71102;50.960;6.888;2024-03-23T12:20:59;100679.03;;;9.35;69.91
81686;BME280;71102;50.960;6.888;2024-03-23T12:23:25;100691.00;;;9.00;70.73
81686;BME280;71102;50.960;6.888;2024-03-23T12:25:50;100708.69;;;8.37;73.84
81686;BME280;71102;50.960;6.888;2024-03-23T12:28:15;100705.38;;;8.50;75.31
81686;BME280;71102;50.960;6.888;2024-03-23T12:30:41;100690.06;;;8.92;74.27
81686;BME280;71102;50.960;6.888;2024-03-23T12:33:07;100719.53;;;8.55;76.24
81686;BME280;71102;50.960;6.888;2024-03-23T12:35:32;100723.22;;;8.08;78.96
81686;BME280;71102;50.960;6.888;2024-03-23T12:37:57;100736.47;;;7.59;80.19
81686;BME280;71102;50.960;6.888;2024-03-23T12:40:23;100726.97;;;7.21;81.25
81686;BME280;71102;50.960;6.888;2024-03-23T12:42:48;100701.13;;;7.48;83.46
81686;BME280;71102;50.960;6.888;2024-03-23T12:45:14;100706.78;;;8.27;78.91
81686;BME280;71102;50.960;6.888;2024-03-23T12:47:39;100683.56;;;8.03;79.43
81686;BME280;71102;50.960;6.888;2024-03-23T12:50:05;100683.13;;;8.33;80.79
81686;BME280;71102;50.960;6.888;2024-03-23T12:52:30;100655.38;;;9.49;72.34
81686;BME280;71102;50.960;6.888;2024-03-23T12:54:56;100649.72;;;10.16;66.87
81686;BME280;71102;50.960;6.888;2024-03-23T12:57:23;100650.16;;;11.66;62.92
81686;BME280;71102;50.960;6.888;2024-03-23T12:59:48;100644.91;;;13.58;57.52
81686;BME280;71102;50.960;6.888;2024-03-23T13:02:13;100650.22;;;14.51;51.04
81686;BME280;71102;50.960;6.888;2024-03-23T13:04:39;100640.53;;;14.44;50.60
81686;BME280;71102;50.960;6.888;2024-03-23T13:07:04;100632.22;;;14.68;48.51
81686;BME280;71102;50.960;6.888;2024-03-23T13:09:29;100637.13;;;13.32;51.85
81686;BME280;71102;50.960;6.888;2024-03-23T13:11:55;100636.47;;;13.03;53.01
81686;BME280;71102;50.960;6.888;2024-03-23T13:14:20;100631.34;;;12.53;53.91
81686;BME280;71102;50.960;6.888;2024-03-23T13:16:45;100636.75;;;12.31;56.35
81686;BME280;71102;50.960;6.888;2024-03-23T13:19:11;100623.31;;;12.71;54.93
81686;BME280;71102;50.960;6.888;2024-03-23T13:21:36;100625.03;;;12.75;54.93
81686;BME280;71102;50.960;6.888;2024-03-23T13:24:01;100617.94;;;14.72;51.53
81686;BME280;71102;50.960;6.888;2024-03-23T13:26:27;100616.31;;;15.78;47.89
81686;BME280;71102;50.960;6.888;2024-03-23T13:28:52;100610.78;;;14.77;47.20
81686;BME280;71102;50.960;6.888;2024-03-23T13:31:17;100606.38;;;13.96;47.83
81686;BME280;71102;50.960;6.888;2024-03-23T13:33:43;100604.72;;;12.61;50.63
81686;BME280;71102;50.960;6.888;2024-03-23T13:36:08;100615.41;;;13.80;48.29
81686;BME280;71102;50.960;6.888;2024-03-23T13:38:33;100604.16;;;13.53;49.58
81686;BME280;71102;50.960;6.888;2024-03-23T13:41:00;100594.91;;;12.73;51.51
81686;BME280;71102;50.960;6.888;2024-03-23T13:43:26;100624.41;;;12.15;52.45
81686;BME280;71102;50.960;6.888;2024-03-23T13:46:01;100604.13;;;11.75;53.41
81686;BME280;71102;50.960;6.888;2024-03-23T13:48:27;100599.66;;;10.91;56.87
81686;BME280;71102;50.960;6.888;2024-03-23T13:51:05;100599.66;;;10.91;56.54
81686;BME280;71102;50.960;6.888;2024-03-23T13:53:31;100620.78;;;10.61;55.55
81686;BME280;71102;50.960;6.888;2024-03-23T13:55:56;100616.16;;;10.18;55.01
81686;BME280;71102;50.960;6.888;2024-03-23T13:58:22;100629.94;;;9.67;56.01